createdAt,value
2018-06-07T00:01:03.878Z,0
2018-06-07T00:02:13.025Z,0
2018-06-07T00:03:22.963Z,0
2018-06-07T00:04:32.630Z,0
2018-06-07T00:05:42.066Z,0
2018-06-07T00:06:51.517Z,0
2018-06-07T00:08:00.718Z,0
2018-06-07T00:09:10.391Z,0
2018-06-07T00:10:20.109Z,0
2018-06-07T00:11:29.776Z,0
2018-06-07T00:12:39.446Z,0
2018-06-07T00:13:49.188Z,0
2018-06-07T00:14:58.622Z,0
2018-06-07T00:16:07.562Z,0
2018-06-07T00:17:17.008Z,0
2018-06-07T00:18:26.722Z,0
2018-06-07T00:19:36.155Z,0
2018-06-07T00:20:45.597Z,0
2018-06-07T00:21:55.265Z,0
2018-06-07T00:23:04.451Z,0
2018-06-07T00:24:13.622Z,0
2018-06-07T00:25:22.525Z,0
2018-06-07T00:26:32.203Z,0
2018-06-07T00:27:41.919Z,0
2018-06-07T00:28:51.329Z,0
2018-06-07T00:30:00.510Z,0
2018-06-07T00:31:09.919Z,0
2018-06-07T00:32:19.075Z,0
2018-06-07T00:33:28.478Z,0
2018-06-07T00:34:37.885Z,0
2018-06-07T00:35:47.544Z,0
2018-06-07T00:36:56.968Z,0
2018-06-07T00:38:06.122Z,0
2018-06-07T00:39:15.374Z,0
2018-06-07T00:40:24.804Z,0
2018-06-07T00:41:34.229Z,0
2018-06-07T00:42:43.893Z,0
2018-06-07T00:43:53.058Z,0
2018-06-07T00:45:02.477Z,0
2018-06-07T00:46:11.626Z,0
2018-06-07T00:47:21.060Z,0
2018-06-07T00:48:30.476Z,0
2018-06-07T00:49:39.889Z,0
2018-06-07T00:50:49.318Z,0
2018-06-07T00:51:58.998Z,0
2018-06-07T00:53:07.893Z,0
2018-06-07T00:54:17.833Z,0
2018-06-07T00:55:27.260Z,0
2018-06-07T00:56:36.451Z,0
2018-06-07T00:57:46.137Z,0
2018-06-07T00:58:55.551Z,0
2018-06-07T01:00:05.231Z,0
2018-06-07T01:01:14.672Z,0
2018-06-07T01:02:23.827Z,0
2018-06-07T01:03:33.503Z,0
2018-06-07T01:04:42.924Z,0
2018-06-07T01:05:52.092Z,0
2018-06-07T01:07:01.298Z,0
2018-06-07T01:08:10.437Z,0
2018-06-07T01:09:19.589Z,0
2018-06-07T01:10:29.273Z,0
2018-06-07T01:11:38.702Z,0
2018-06-07T01:12:48.145Z,0
2018-06-07T01:13:57.045Z,0
2018-06-07T01:15:06.200Z,0
2018-06-07T01:16:16.141Z,0
2018-06-07T01:17:25.816Z,0
2018-06-07T01:18:34.726Z,0
2018-06-07T01:19:43.890Z,0
2018-06-07T01:20:53.056Z,0
2018-06-07T01:22:02.988Z,0
2018-06-07T01:23:11.887Z,0
2018-06-07T01:24:21.564Z,0
2018-06-07T01:25:30.974Z,0
2018-06-07T01:26:40.119Z,0
2018-06-07T01:27:48.764Z,0
2018-06-07T01:28:58.165Z,0
2018-06-07T01:30:07.331Z,0
2018-06-07T01:31:15.961Z,0
2018-06-07T01:32:25.384Z,0
2018-06-07T01:33:34.526Z,0
2018-06-07T01:34:43.996Z,0
2018-06-07T01:35:53.916Z,0
2018-06-07T01:37:03.329Z,0
2018-06-07T01:38:12.483Z,0
2018-06-07T01:39:21.912Z,0
2018-06-07T01:40:31.827Z,0
2018-06-07T01:41:41.273Z,0
2018-06-07T01:42:50.678Z,0
2018-06-07T01:43:59.828Z,0
2018-06-07T01:45:09.528Z,0
2018-06-07T01:46:18.949Z,0
2018-06-07T01:47:28.104Z,0
2018-06-07T01:48:37.302Z,0
2018-06-07T01:49:46.474Z,0
2018-06-07T01:50:55.616Z,0
2018-06-07T01:52:05.045Z,0
2018-06-07T01:53:14.183Z,0
2018-06-07T01:54:23.610Z,0
2018-06-07T01:55:33.019Z,0
2018-06-07T01:56:42.674Z,0
2018-06-07T01:57:51.589Z,0
2018-06-07T01:59:00.750Z,0
2018-06-07T02:00:10.418Z,0
2018-06-07T02:01:19.852Z,0
2018-06-07T02:02:29.258Z,0
2018-06-07T02:03:38.683Z,0
2018-06-07T02:04:47.578Z,0
2018-06-07T02:05:57.254Z,0
2018-06-07T02:07:06.658Z,0
2018-06-07T02:08:15.807Z,0
2018-06-07T02:09:24.950Z,0
2018-06-07T02:10:33.841Z,0
2018-06-07T02:11:43.510Z,0
2018-06-07T02:12:53.434Z,0
2018-06-07T02:14:02.856Z,0
2018-06-07T02:15:12.044Z,0
2018-06-07T02:16:21.212Z,0
2018-06-07T02:17:31.139Z,0
2018-06-07T02:18:40.548Z,0
2018-06-07T02:19:49.951Z,0
2018-06-07T02:20:59.115Z,0
2018-06-07T02:22:08.527Z,0
2018-06-07T02:23:17.956Z,0
2018-06-07T02:24:27.100Z,0
2018-06-07T02:25:36.501Z,0
2018-06-07T02:26:46.174Z,0
2018-06-07T02:27:55.839Z,0
2018-06-07T02:29:05.503Z,0
2018-06-07T02:30:15.190Z,0
2018-06-07T02:31:24.879Z,0
2018-06-07T02:32:34.300Z,0
2018-06-07T02:33:44.250Z,0
2018-06-07T02:34:53.926Z,0
2018-06-07T02:36:03.630Z,0
2018-06-07T02:37:13.037Z,0
2018-06-07T02:38:22.447Z,0
2018-06-07T02:39:31.910Z,0
2018-06-07T02:40:41.087Z,0
2018-06-07T02:41:50.776Z,0
2018-06-07T02:43:00.198Z,0
2018-06-07T02:44:09.891Z,0
2018-06-07T02:45:19.603Z,0
2018-06-07T02:46:28.506Z,0
2018-06-07T02:47:38.164Z,0
2018-06-07T02:48:47.565Z,0
2018-06-07T02:49:56.970Z,0
2018-06-07T02:51:05.614Z,0
2018-06-07T02:52:15.086Z,0
2018-06-07T02:53:25.022Z,0
2018-06-07T02:54:34.440Z,0
2018-06-07T02:55:44.413Z,0
2018-06-07T02:56:53.575Z,0
2018-06-07T02:58:03.252Z,0
2018-06-07T02:59:12.397Z,0
2018-06-07T03:00:22.062Z,0
2018-06-07T03:01:31.271Z,0
2018-06-07T03:02:40.689Z,0
2018-06-07T03:03:50.363Z,0
2018-06-07T03:04:59.509Z,0
2018-06-07T03:06:09.187Z,0
2018-06-07T03:07:19.108Z,0
2018-06-07T03:08:28.248Z,0
2018-06-07T03:09:37.923Z,0
2018-06-07T03:10:47.597Z,0
2018-06-07T03:11:56.993Z,0
2018-06-07T03:13:06.711Z,0
2018-06-07T03:14:15.606Z,0
2018-06-07T03:15:24.236Z,0
2018-06-07T03:16:33.907Z,0
2018-06-07T03:17:43.314Z,0
2018-06-07T03:18:52.722Z,0
2018-06-07T03:20:01.620Z,0
2018-06-07T03:21:11.311Z,0
2018-06-07T03:22:21.233Z,0
2018-06-07T03:23:31.157Z,0
2018-06-07T03:24:40.565Z,0
2018-06-07T03:25:49.720Z,0
2018-06-07T03:26:59.128Z,0
2018-06-07T03:28:08.542Z,0
2018-06-07T03:29:17.953Z,0
2018-06-07T03:30:27.948Z,0
2018-06-07T03:31:37.690Z,0
2018-06-07T03:32:47.380Z,0
2018-06-07T03:33:57.313Z,0
2018-06-07T03:35:06.988Z,0
2018-06-07T03:36:16.134Z,0
2018-06-07T03:37:25.789Z,0
2018-06-07T03:38:35.210Z,0
2018-06-07T03:39:44.616Z,0
2018-06-07T03:40:53.779Z,0
2018-06-07T03:42:02.681Z,0
2018-06-07T03:43:11.836Z,0
2018-06-07T03:44:21.516Z,0
2018-06-07T03:45:30.661Z,0
2018-06-07T03:46:39.821Z,0
2018-06-07T03:47:48.711Z,0
2018-06-07T03:48:57.606Z,0
2018-06-07T03:50:06.798Z,0
2018-06-07T03:51:16.458Z,0
2018-06-07T03:52:26.437Z,0
2018-06-07T03:53:36.113Z,0
2018-06-07T03:54:45.286Z,0
2018-06-07T03:55:54.439Z,0
2018-06-07T03:57:04.128Z,0
2018-06-07T03:58:14.058Z,0
2018-06-07T03:59:23.265Z,0
2018-06-07T04:00:32.438Z,0
2018-06-07T04:01:41.585Z,0
2018-06-07T04:02:51.015Z,0
2018-06-07T04:04:00.169Z,0
2018-06-07T04:05:09.436Z,0
2018-06-07T04:06:19.244Z,0
2018-06-07T04:07:28.409Z,4
2018-06-07T04:08:37.589Z,4
2018-06-07T04:09:46.761Z,0
2018-06-07T04:10:56.424Z,0
2018-06-07T04:12:05.595Z,0
2018-06-07T04:13:15.031Z,0
2018-06-07T04:14:24.707Z,4
2018-06-07T04:15:33.868Z,4
2018-06-07T04:16:43.031Z,4
2018-06-07T04:17:52.452Z,4
2018-06-07T04:19:01.877Z,4
2018-06-07T04:20:11.037Z,4
2018-06-07T04:21:20.459Z,4
2018-06-07T04:22:29.618Z,4
2018-06-07T04:23:39.575Z,4
2018-06-07T04:24:48.995Z,4
2018-06-07T04:25:58.663Z,4
2018-06-07T04:27:07.839Z,4
2018-06-07T04:28:17.770Z,0
2018-06-07T04:29:27.185Z,0
2018-06-07T04:30:36.880Z,0
2018-06-07T04:31:46.281Z,0
2018-06-07T04:32:56.224Z,0
2018-06-07T04:34:05.418Z,4
2018-06-07T04:35:14.836Z,4
2018-06-07T04:36:24.547Z,4
2018-06-07T04:37:34.218Z,4
2018-06-07T04:38:43.653Z,4
2018-06-07T04:39:52.567Z,4
2018-06-07T04:41:01.729Z,4
2018-06-07T04:42:11.416Z,4
2018-06-07T04:43:20.886Z,4
2018-06-07T04:44:30.558Z,4
2018-06-07T04:45:39.959Z,4
2018-06-07T04:46:49.889Z,4
2018-06-07T04:47:59.351Z,4
2018-06-07T04:49:07.971Z,4
2018-06-07T04:50:17.899Z,4
2018-06-07T04:51:27.358Z,4
2018-06-07T04:52:36.829Z,4
2018-06-07T04:53:46.233Z,4
2018-06-07T04:54:55.195Z,4
2018-06-07T04:56:04.605Z,4
2018-06-07T04:57:14.540Z,4
2018-06-07T04:58:23.706Z,4
2018-06-07T04:59:32.863Z,4
2018-06-07T05:00:42.786Z,4
2018-06-07T05:01:52.232Z,4
2018-06-07T05:03:01.379Z,8
2018-06-07T05:04:10.536Z,4
2018-06-07T05:05:19.945Z,4
2018-06-07T05:06:29.158Z,8
2018-06-07T05:07:38.566Z,8
2018-06-07T05:08:47.817Z,4
2018-06-07T05:09:57.739Z,8
2018-06-07T05:11:06.903Z,8
2018-06-07T05:12:16.842Z,8
2018-06-07T05:13:26.312Z,8
2018-06-07T05:14:35.489Z,4
2018-06-07T05:15:45.450Z,4
2018-06-07T05:16:55.126Z,4
2018-06-07T05:18:04.026Z,4
2018-06-07T05:19:13.453Z,4
2018-06-07T05:20:22.619Z,8
2018-06-07T05:21:32.300Z,8
2018-06-07T05:22:41.981Z,8
2018-06-07T05:23:51.652Z,8
2018-06-07T05:25:01.466Z,8
2018-06-07T05:26:10.625Z,8
2018-06-07T05:27:19.766Z,8
2018-06-07T05:28:29.432Z,8
2018-06-07T05:29:39.090Z,8
2018-06-07T05:30:48.746Z,8
2018-06-07T05:31:58.203Z,8
2018-06-07T05:33:07.972Z,12
2018-06-07T05:34:17.642Z,12
2018-06-07T05:35:27.075Z,8
2018-06-07T05:36:36.231Z,8
2018-06-07T05:37:45.909Z,8
2018-06-07T05:38:55.194Z,8
2018-06-07T05:40:04.622Z,8
2018-06-07T05:41:14.296Z,12
2018-06-07T05:42:23.965Z,8
2018-06-07T05:43:33.393Z,8
2018-06-07T05:44:42.812Z,4
2018-06-07T05:45:51.988Z,8
2018-06-07T05:47:02.089Z,12
2018-06-07T05:48:10.743Z,12
2018-06-07T05:49:19.915Z,16
2018-06-07T05:50:29.593Z,16
2018-06-07T05:51:39.624Z,16
2018-06-07T05:52:49.189Z,16
2018-06-07T05:53:58.867Z,16
2018-06-07T05:55:08.537Z,12
2018-06-07T05:56:18.595Z,12
2018-06-07T05:57:28.039Z,12
2018-06-07T05:58:36.940Z,12
2018-06-07T05:59:46.476Z,16
2018-06-07T06:00:56.012Z,8
2018-06-07T06:02:05.756Z,0
2018-06-07T06:03:15.610Z,8
2018-06-07T06:04:25.129Z,4
2018-06-07T06:05:34.711Z,8
2018-06-07T06:06:44.403Z,12
2018-06-07T06:07:54.083Z,12
2018-06-07T06:09:03.505Z,8
2018-06-07T06:10:12.402Z,8
2018-06-07T06:11:22.243Z,12
2018-06-07T06:12:31.727Z,12
2018-06-07T06:13:41.402Z,12
2018-06-07T06:14:50.588Z,12
2018-06-07T06:16:00.012Z,12
2018-06-07T06:17:09.443Z,16
2018-06-07T06:18:19.384Z,16
2018-06-07T06:19:28.533Z,16
2018-06-07T06:20:38.545Z,0
2018-06-07T06:21:48.262Z,0
2018-06-07T06:22:58.003Z,0
2018-06-07T06:24:07.732Z,0
2018-06-07T06:25:17.709Z,4
2018-06-07T06:26:27.157Z,4
2018-06-07T06:27:36.344Z,0
2018-06-07T06:28:46.022Z,0
2018-06-07T06:29:55.457Z,4
2018-06-07T06:31:04.662Z,4
2018-06-07T06:32:14.360Z,4
2018-06-07T06:33:23.858Z,4
2018-06-07T06:34:33.866Z,4
2018-06-07T06:35:43.069Z,4
2018-06-07T06:36:52.235Z,4
2018-06-07T06:38:01.665Z,4
2018-06-07T06:39:12.284Z,4
2018-06-07T06:40:21.413Z,4
2018-06-07T06:41:31.365Z,4
2018-06-07T06:42:41.072Z,4
2018-06-07T06:43:50.519Z,4
2018-06-07T06:44:59.682Z,4
2018-06-07T06:46:08.341Z,4
2018-06-07T06:47:17.281Z,4
2018-06-07T06:48:27.214Z,4
2018-06-07T06:49:37.070Z,4
2018-06-07T06:50:46.778Z,4
2018-06-07T06:51:55.716Z,4
2018-06-07T06:53:04.657Z,4
2018-06-07T06:54:14.375Z,4
2018-06-07T06:55:23.558Z,4
2018-06-07T06:56:33.253Z,4
2018-06-07T06:57:43.191Z,4
2018-06-07T06:58:52.615Z,8
2018-06-07T07:00:02.556Z,8
2018-06-07T07:01:11.985Z,8
2018-06-07T07:02:21.678Z,8
2018-06-07T07:03:30.854Z,8
2018-06-07T07:04:40.269Z,4
2018-06-07T07:05:49.717Z,4
2018-06-07T07:06:58.940Z,4
2018-06-07T07:08:08.367Z,4
2018-06-07T07:09:17.733Z,4
2018-06-07T07:10:27.532Z,4
2018-06-07T07:11:37.268Z,4
2018-06-07T07:12:46.425Z,4
2018-06-07T07:13:56.119Z,4
2018-06-07T07:15:05.014Z,4
2018-06-07T07:16:14.177Z,8
2018-06-07T07:17:23.072Z,8
2018-06-07T07:18:32.750Z,8
2018-06-07T07:19:42.439Z,8
2018-06-07T07:20:51.605Z,8
2018-06-07T07:22:00.820Z,4
2018-06-07T07:23:10.848Z,4
2018-06-07T07:24:20.604Z,8
2018-06-07T07:25:30.561Z,8
2018-06-07T07:26:40.505Z,4
2018-06-07T07:27:50.193Z,8
2018-06-07T07:28:59.115Z,8
2018-06-07T07:30:08.321Z,8
2018-06-07T07:31:17.480Z,12
2018-06-07T07:32:26.655Z,8
2018-06-07T07:33:35.802Z,8
2018-06-07T07:34:45.517Z,8
2018-06-07T07:35:55.203Z,4
2018-06-07T07:37:04.369Z,4
2018-06-07T07:38:13.797Z,4
2018-06-07T07:39:22.941Z,4
2018-06-07T07:40:32.122Z,4
2018-06-07T07:41:41.800Z,4
2018-06-07T07:42:50.466Z,4
2018-06-07T07:43:59.894Z,4
2018-06-07T07:45:09.580Z,4
2018-06-07T07:46:18.747Z,4
2018-06-07T07:47:28.190Z,4
2018-06-07T07:48:37.957Z,4
2018-06-07T07:49:47.414Z,4
2018-06-07T07:50:57.132Z,4
2018-06-07T07:52:06.563Z,4
2018-06-07T07:53:15.989Z,4
2018-06-07T07:54:25.661Z,4
2018-06-07T07:55:34.839Z,4
2018-06-07T07:56:43.491Z,4
2018-06-07T07:57:53.168Z,8
2018-06-07T07:59:02.581Z,8
2018-06-07T08:00:12.026Z,4
2018-06-07T08:01:21.442Z,4
2018-06-07T08:02:31.124Z,8
2018-06-07T08:03:40.540Z,8
2018-06-07T08:04:49.710Z,8
2018-06-07T08:05:59.403Z,8
2018-06-07T08:07:08.324Z,8
2018-06-07T08:08:17.550Z,8
2018-06-07T08:09:27.483Z,8
2018-06-07T08:10:36.911Z,12
2018-06-07T08:11:46.870Z,8
2018-06-07T08:12:56.038Z,8
2018-06-07T08:14:05.454Z,8
2018-06-07T08:15:14.393Z,8
2018-06-07T08:16:23.830Z,8
2018-06-07T08:17:33.779Z,4
2018-06-07T08:18:43.723Z,4
2018-06-07T08:19:52.682Z,4
2018-06-07T08:21:02.359Z,12
2018-06-07T08:22:12.046Z,8
2018-06-07T08:23:21.986Z,8
2018-06-07T08:24:31.667Z,12
2018-06-07T08:25:41.592Z,12
2018-06-07T08:26:51.010Z,8
2018-06-07T08:28:00.165Z,8
2018-06-07T08:29:09.086Z,8
2018-06-07T08:30:18.512Z,8
2018-06-07T08:31:27.929Z,12
2018-06-07T08:32:37.085Z,12
2018-06-07T08:33:46.238Z,12
2018-06-07T08:34:56.178Z,8
2018-06-07T08:36:05.081Z,4
2018-06-07T08:37:14.779Z,8
2018-06-07T08:38:24.451Z,8
2018-06-07T08:39:33.738Z,8
2018-06-07T08:40:43.189Z,12
2018-06-07T08:41:53.142Z,8
2018-06-07T08:43:02.570Z,8
2018-06-07T08:44:11.472Z,8
2018-06-07T08:45:20.897Z,8
2018-06-07T08:46:30.839Z,8
2018-06-07T08:47:40.261Z,4
2018-06-07T08:48:49.689Z,4
2018-06-07T08:49:58.849Z,4
2018-06-07T08:51:08.532Z,8
2018-06-07T08:52:17.704Z,4
2018-06-07T08:53:27.385Z,4
2018-06-07T08:54:36.833Z,4
2018-06-07T08:55:46.261Z,8
2018-06-07T08:56:55.161Z,8
2018-06-07T08:58:04.599Z,8
2018-06-07T08:59:14.064Z,8
2018-06-07T09:00:23.398Z,8
2018-06-07T09:01:32.861Z,8
2018-06-07T09:02:42.031Z,8
2018-06-07T09:03:51.191Z,12
2018-06-07T09:05:00.636Z,12
2018-06-07T09:06:09.800Z,12
2018-06-07T09:07:19.217Z,12
2018-06-07T09:08:29.168Z,12
2018-06-07T09:09:38.323Z,12
2018-06-07T09:10:48.008Z,8
2018-06-07T09:11:56.653Z,8
2018-06-07T09:13:06.104Z,8
2018-06-07T09:14:15.505Z,8
2018-06-07T09:15:24.937Z,8
2018-06-07T09:16:34.366Z,8
2018-06-07T09:17:43.930Z,8
2018-06-07T09:18:53.763Z,8
2018-06-07T09:20:02.937Z,8
2018-06-07T09:21:12.104Z,8
2018-06-07T09:22:21.026Z,8
2018-06-07T09:23:30.447Z,8
2018-06-07T09:24:39.863Z,8
2018-06-07T09:25:49.302Z,8
2018-06-07T09:26:58.226Z,8
2018-06-07T09:28:06.881Z,8
2018-06-07T09:29:16.308Z,12
2018-06-07T09:30:25.737Z,12
2018-06-07T09:31:35.445Z,12
2018-06-07T09:32:44.866Z,12
2018-06-07T09:33:54.039Z,12
2018-06-07T09:35:03.205Z,12
2018-06-07T09:36:12.113Z,12
2018-06-07T09:37:21.794Z,12
2018-06-07T09:38:30.977Z,12
2018-06-07T09:39:40.395Z,12
2018-06-07T09:40:49.817Z,12
2018-06-07T09:41:59.499Z,12
2018-06-07T09:43:09.194Z,12
2018-06-07T09:44:18.366Z,12
2018-06-07T09:45:27.556Z,12
2018-06-07T09:46:37.246Z,12
2018-06-07T09:47:46.418Z,12
2018-06-07T09:48:56.095Z,12
2018-06-07T09:50:05.522Z,12
2018-06-07T09:51:14.943Z,12
2018-06-07T09:52:24.127Z,12
2018-06-07T09:53:33.582Z,12
2018-06-07T09:54:43.004Z,12
2018-06-07T09:55:52.207Z,12
2018-06-07T09:57:01.903Z,12
2018-06-07T09:58:12.119Z,12
2018-06-07T09:59:21.734Z,12
2018-06-07T10:00:31.439Z,12
2018-06-07T10:01:41.125Z,12
2018-06-07T10:02:50.307Z,12
2018-06-07T10:03:59.735Z,12
2018-06-07T10:05:09.418Z,12
2018-06-07T10:06:18.843Z,12
2018-06-07T10:07:28.269Z,12
2018-06-07T10:08:37.703Z,12
2018-06-07T10:09:47.136Z,12
2018-06-07T10:10:56.325Z,12
2018-06-07T10:12:05.749Z,12
2018-06-07T10:13:15.445Z,12
2018-06-07T10:14:24.365Z,12
2018-06-07T10:15:34.032Z,12
2018-06-07T10:16:43.194Z,12
2018-06-07T10:17:52.599Z,12
2018-06-07T10:19:02.010Z,12
2018-06-07T10:20:11.703Z,12
2018-06-07T10:21:20.863Z,12
2018-06-07T10:22:30.959Z,12
2018-06-07T10:23:40.065Z,12
2018-06-07T10:24:49.225Z,12
2018-06-07T10:25:58.921Z,8
2018-06-07T10:27:08.365Z,8
2018-06-07T10:28:18.312Z,8
2018-06-07T10:29:27.475Z,8
2018-06-07T10:30:37.411Z,8
2018-06-07T10:31:47.081Z,8
2018-06-07T10:32:56.234Z,12
2018-06-07T10:34:05.145Z,12
2018-06-07T10:35:14.814Z,12
2018-06-07T10:36:23.975Z,12
2018-06-07T10:37:33.401Z,12
2018-06-07T10:38:42.564Z,12
2018-06-07T10:39:51.461Z,8
2018-06-07T10:41:00.624Z,8
2018-06-07T10:42:09.788Z,8
2018-06-07T10:43:19.200Z,12
2018-06-07T10:44:28.358Z,8
2018-06-07T10:45:37.287Z,12
2018-06-07T10:46:46.216Z,12
2018-06-07T10:47:55.388Z,12
2018-06-07T10:49:04.817Z,12
2018-06-07T10:50:14.478Z,12
2018-06-07T10:51:23.659Z,12
2018-06-07T10:52:33.355Z,12
2018-06-07T10:53:42.271Z,12
2018-06-07T10:54:51.970Z,8
2018-06-07T10:56:01.147Z,8
2018-06-07T10:57:10.305Z,8
2018-06-07T10:58:19.976Z,8
2018-06-07T10:59:29.145Z,8
2018-06-07T11:00:37.811Z,8
2018-06-07T11:01:47.507Z,12
2018-06-07T11:02:56.670Z,12
2018-06-07T11:04:06.104Z,12
2018-06-07T11:05:15.521Z,12
2018-06-07T11:06:25.181Z,12
2018-06-07T11:07:34.093Z,12
2018-06-07T11:08:43.513Z,12
2018-06-07T11:09:52.406Z,12
2018-06-07T11:11:01.822Z,8
2018-06-07T11:12:10.986Z,8
2018-06-07T11:13:20.185Z,12
2018-06-07T11:14:29.369Z,12
2018-06-07T11:15:39.307Z,8
2018-06-07T11:16:49.408Z,12
2018-06-07T11:17:58.838Z,8
2018-06-07T11:19:08.047Z,12
2018-06-07T11:20:17.204Z,8
2018-06-07T11:21:26.909Z,12
2018-06-07T11:22:36.596Z,12
2018-06-07T11:23:48.515Z,12
2018-06-07T11:24:58.500Z,12
2018-06-07T11:26:07.918Z,20
2018-06-07T11:27:17.333Z,8
2018-06-07T11:28:27.006Z,8
2018-06-07T11:29:36.166Z,8
2018-06-07T11:30:45.594Z,8
2018-06-07T11:31:54.759Z,12
2018-06-07T11:33:04.448Z,12
2018-06-07T11:34:14.132Z,8
2018-06-07T11:35:23.806Z,8
2018-06-07T11:36:32.967Z,8
2018-06-07T11:37:42.389Z,12
2018-06-07T11:38:51.812Z,12
2018-06-07T11:40:00.710Z,8
2018-06-07T11:41:09.902Z,12
2018-06-07T11:42:19.089Z,8
2018-06-07T11:43:28.797Z,12
2018-06-07T11:44:37.971Z,12
2018-06-07T11:45:47.405Z,8
2018-06-07T11:46:56.557Z,8
2018-06-07T11:48:05.724Z,12
2018-06-07T11:49:15.246Z,12
2018-06-07T11:50:24.915Z,12
2018-06-07T11:51:34.079Z,12
2018-06-07T11:52:43.756Z,12
2018-06-07T11:53:52.978Z,12
2018-06-07T11:55:02.891Z,12
2018-06-07T11:56:11.796Z,8
2018-06-07T11:57:20.968Z,8
2018-06-07T11:58:30.140Z,8
2018-06-07T11:59:40.096Z,8
2018-06-07T12:00:50.101Z,12
2018-06-07T12:01:59.793Z,8
2018-06-07T12:03:09.243Z,8
2018-06-07T12:04:18.412Z,8
2018-06-07T12:05:27.126Z,8
2018-06-07T12:06:36.829Z,12
2018-06-07T12:07:45.725Z,12
2018-06-07T12:08:55.151Z,8
2018-06-07T12:10:04.049Z,8
2018-06-07T12:11:13.726Z,8
2018-06-07T12:12:23.660Z,12
2018-06-07T12:13:33.445Z,12
2018-06-07T12:14:43.156Z,12
2018-06-07T12:15:52.376Z,12
2018-06-07T12:17:01.531Z,8
2018-06-07T12:18:10.732Z,12
2018-06-07T12:19:20.414Z,16
2018-06-07T12:20:30.086Z,16
2018-06-07T12:21:39.248Z,12
2018-06-07T12:22:48.408Z,12
2018-06-07T12:23:57.837Z,12
2018-06-07T12:25:07.777Z,16
2018-06-07T12:26:17.472Z,16
2018-06-07T12:27:26.904Z,12
2018-06-07T12:28:36.330Z,16
2018-06-07T12:29:46.003Z,12
2018-06-07T12:30:55.612Z,12
2018-06-07T12:32:04.876Z,12
2018-06-07T12:33:14.345Z,16
2018-06-07T12:34:23.306Z,12
2018-06-07T12:35:32.725Z,12
2018-06-07T12:36:42.154Z,16
2018-06-07T12:37:51.313Z,12
2018-06-07T12:39:00.216Z,16
2018-06-07T12:40:10.142Z,16
2018-06-07T12:41:20.018Z,12
2018-06-07T12:42:28.658Z,16
2018-06-07T12:43:38.089Z,16
2018-06-07T12:44:47.260Z,16
2018-06-07T12:45:56.698Z,12
2018-06-07T12:47:07.093Z,12
2018-06-07T12:48:16.769Z,12
2018-06-07T12:49:26.183Z,12
2018-06-07T12:50:35.589Z,8
2018-06-07T12:51:44.512Z,8
2018-06-07T12:52:54.194Z,8
2018-06-07T12:54:03.112Z,12
2018-06-07T12:55:13.318Z,12
2018-06-07T12:56:23.043Z,12
2018-06-07T12:57:32.988Z,12
2018-06-07T12:58:41.898Z,8
2018-06-07T12:59:51.331Z,12
2018-06-07T13:01:00.754Z,12
2018-06-07T13:02:10.191Z,12
2018-06-07T13:03:19.805Z,12
2018-06-07T13:04:29.640Z,12
2018-06-07T13:05:39.312Z,12
2018-06-07T13:06:49.249Z,16
2018-06-07T13:07:59.356Z,16
2018-06-07T13:09:08.286Z,12
2018-06-07T13:10:17.815Z,16
2018-06-07T13:11:26.994Z,20
2018-06-07T13:12:36.679Z,20
2018-06-07T13:13:46.098Z,20
2018-06-07T13:14:55.516Z,20
2018-06-07T13:16:04.957Z,20
2018-06-07T13:17:14.373Z,20
2018-06-07T13:18:23.541Z,20
2018-06-07T13:19:33.000Z,20
2018-06-07T13:20:42.436Z,20
2018-06-07T13:21:51.597Z,24
2018-06-07T13:23:01.026Z,20
2018-06-07T13:24:10.488Z,24
2018-06-07T13:25:20.178Z,28
2018-06-07T13:26:29.618Z,28
2018-06-07T13:27:38.821Z,28
2018-06-07T13:28:48.442Z,32
2018-06-07T13:29:58.214Z,28
2018-06-07T13:31:07.638Z,32
2018-06-07T13:32:16.817Z,32
2018-06-07T13:33:26.509Z,28
2018-06-07T13:34:36.182Z,32
2018-06-07T13:35:45.602Z,28
2018-06-07T13:36:55.046Z,32
2018-06-07T13:38:04.465Z,32
2018-06-07T13:39:13.918Z,32
2018-06-07T13:40:23.759Z,32
2018-06-07T13:41:32.933Z,32
2018-06-07T13:42:42.610Z,32
2018-06-07T13:43:51.777Z,32
2018-06-07T13:45:00.983Z,28
2018-06-07T13:46:10.142Z,32
2018-06-07T13:47:19.547Z,32
2018-06-07T13:48:29.242Z,28
2018-06-07T13:49:38.935Z,24
2018-06-07T13:50:48.309Z,24
2018-06-07T13:51:57.949Z,24
2018-06-07T13:53:07.629Z,28
2018-06-07T13:54:16.803Z,16
2018-06-07T13:55:25.974Z,28
2018-06-07T13:56:35.392Z,28
2018-06-07T13:57:44.823Z,24
2018-06-07T13:58:54.256Z,24
2018-06-07T14:00:03.442Z,24
2018-06-07T14:01:12.861Z,28
2018-06-07T14:02:21.498Z,28
2018-06-07T14:03:30.912Z,32
2018-06-07T14:04:40.370Z,28
2018-06-07T14:05:49.855Z,32
2018-06-07T14:06:59.008Z,32
2018-06-07T14:08:07.678Z,32
2018-06-07T14:09:17.093Z,28
2018-06-07T14:10:26.766Z,32
2018-06-07T14:11:36.606Z,28
2018-06-07T14:12:46.293Z,28
2018-06-07T14:13:55.990Z,32
2018-06-07T14:15:05.163Z,28
2018-06-07T14:16:14.841Z,28
2018-06-07T14:17:25.161Z,28
2018-06-07T14:18:34.707Z,28
2018-06-07T14:19:43.872Z,24
2018-06-07T14:20:53.311Z,28
2018-06-07T14:22:03.267Z,20
2018-06-07T14:23:12.447Z,20
2018-06-07T14:24:21.356Z,16
2018-06-07T14:25:30.829Z,12
2018-06-07T14:26:40.275Z,12
2018-06-07T14:27:49.453Z,12
2018-06-07T14:28:58.906Z,8
2018-06-07T14:30:08.343Z,16
2018-06-07T14:31:17.767Z,20
2018-06-07T14:32:27.443Z,24
2018-06-07T14:33:37.159Z,20
2018-06-07T14:34:47.111Z,20
2018-06-07T14:35:56.272Z,12
2018-06-07T14:37:05.969Z,20
2018-06-07T14:38:15.142Z,20
2018-06-07T14:39:24.564Z,20
2018-06-07T14:40:34.010Z,8
2018-06-07T14:41:43.438Z,4
2018-06-07T14:42:53.379Z,4
2018-06-07T14:44:02.547Z,0
2018-06-07T14:45:12.025Z,4
2018-06-07T14:46:21.689Z,4
2018-06-07T14:47:31.640Z,4
2018-06-07T14:48:41.064Z,4
2018-06-07T14:49:50.785Z,4
2018-06-07T14:51:00.202Z,4
2018-06-07T14:52:09.369Z,4
2018-06-07T14:53:18.787Z,4
2018-06-07T14:54:28.308Z,4
2018-06-07T14:55:37.485Z,4
2018-06-07T14:56:46.911Z,4
2018-06-07T14:57:56.089Z,4
2018-06-07T14:59:05.830Z,4
2018-06-07T15:00:15.253Z,4
2018-06-07T15:01:24.658Z,4
2018-06-07T15:02:33.574Z,4
2018-06-07T15:03:43.003Z,4
2018-06-07T15:04:52.686Z,4
2018-06-07T15:06:02.115Z,4
2018-06-07T15:07:11.550Z,4
2018-06-07T15:08:21.237Z,4
2018-06-07T15:09:30.423Z,4
2018-06-07T15:10:39.672Z,4
2018-06-07T15:11:49.372Z,4
2018-06-07T15:12:59.037Z,4
2018-06-07T15:14:08.262Z,4
2018-06-07T15:15:17.996Z,4
2018-06-07T15:16:26.912Z,4
2018-06-07T15:17:35.827Z,4
2018-06-07T15:18:45.244Z,4
2018-06-07T15:19:54.683Z,4
2018-06-07T15:21:04.274Z,8
2018-06-07T15:22:13.437Z,8
2018-06-07T15:23:23.117Z,8
2018-06-07T15:24:32.818Z,4
2018-06-07T15:25:42.011Z,4
2018-06-07T15:26:51.503Z,4
2018-06-07T15:28:00.762Z,4
2018-06-07T15:29:09.950Z,4
2018-06-07T15:30:19.142Z,4
2018-06-07T15:31:28.839Z,4
2018-06-07T15:32:38.256Z,4
2018-06-07T15:33:47.433Z,4
2018-06-07T15:34:56.899Z,4
2018-06-07T15:36:06.323Z,8
2018-06-07T15:37:15.758Z,8
2018-06-07T15:38:25.436Z,8
2018-06-07T15:39:34.639Z,8
2018-06-07T15:40:44.363Z,4
2018-06-07T15:41:53.819Z,4
2018-06-07T15:43:03.307Z,4
2018-06-07T15:44:11.987Z,4
2018-06-07T15:45:20.952Z,4
2018-06-07T15:46:30.430Z,4
2018-06-07T15:47:39.892Z,4
2018-06-07T15:48:49.373Z,4
2018-06-07T15:49:58.858Z,4
2018-06-07T15:51:08.333Z,4
2018-06-07T15:52:18.027Z,4
2018-06-07T15:53:27.479Z,4
2018-06-07T15:54:37.140Z,4
2018-06-07T15:55:46.852Z,4
2018-06-07T15:56:56.083Z,0
2018-06-07T15:58:05.783Z,0
2018-06-07T15:59:15.029Z,4
2018-06-07T16:00:24.772Z,0
2018-06-07T16:01:34.192Z,0
2018-06-07T16:02:43.346Z,0
2018-06-07T16:03:52.767Z,0
2018-06-07T16:05:01.926Z,0
2018-06-07T16:06:11.375Z,0
2018-06-07T16:07:20.528Z,0
2018-06-07T16:08:29.931Z,0
2018-06-07T16:09:39.113Z,0
2018-06-07T16:10:48.522Z,0
2018-06-07T16:11:57.436Z,0
2018-06-07T16:13:06.590Z,0
2018-06-07T16:14:15.998Z,0
2018-06-07T16:15:26.184Z,0
2018-06-07T16:16:35.593Z,0
2018-06-07T16:17:45.264Z,0
2018-06-07T16:18:54.442Z,0
2018-06-07T16:20:03.631Z,0
2018-06-07T16:21:13.061Z,0
2018-06-07T16:22:22.736Z,0
2018-06-07T16:23:32.423Z,0
2018-06-07T16:24:41.630Z,0
2018-06-07T16:25:50.559Z,0
2018-06-07T16:27:00.520Z,0
2018-06-07T16:28:09.972Z,0
2018-06-07T16:29:19.396Z,0
2018-06-07T16:30:29.260Z,0
2018-06-07T16:31:38.519Z,0
2018-06-07T16:32:48.462Z,0
2018-06-07T16:33:58.134Z,0
2018-06-07T16:35:07.296Z,0
2018-06-07T16:36:17.003Z,0
2018-06-07T16:37:26.454Z,0
2018-06-07T16:38:35.949Z,0
2018-06-07T16:39:45.646Z,0
2018-06-07T16:40:55.422Z,0
2018-06-07T16:42:04.172Z,0
2018-06-07T16:43:13.952Z,0
2018-06-07T16:44:23.675Z,4
2018-06-07T16:45:33.106Z,4
2018-06-07T16:46:42.799Z,4
2018-06-07T16:47:51.734Z,4
2018-06-07T16:49:00.716Z,0
2018-06-07T16:50:10.912Z,0
2018-06-07T16:51:20.839Z,0
2018-06-07T16:52:30.297Z,0
2018-06-07T16:53:39.508Z,0
2018-06-07T16:54:48.995Z,0
2018-06-07T16:55:58.182Z,0